Terminal Aerodrome Forecast
Issued by NWS

Home | Current Version | Previous Version | Text Only | Print | Product List | Glossary On
Versions: 1 2 3 4 5 6 7 8 9 10 11 12 13 14 15 16 17 18 19 20 21 22 23 24
799
FTUS43 KDLH 161734
TAFBRD
TAF
KBRD 161734Z 1618/1718 12008KT 6SM -SHRA BR OVC008
      TEMPO 1618/1621 5SM -SHRA BR OVC010
     FM162300 08006KT 3SM SHRA BR VCTS SCT008 OVC020CB
     FM170500 06005KT 2SM SHRA BR VCTS OVC008CB
     FM171100 03009KT 1 1/2SM -RA OVC004
     FM171500 36010KT P6SM VCSH BKN009=

USA.gov is the U.S. government's official web portal to all federal, state and local government web resources and services.